createdAt,value
2023-03-17T00:02:52.363Z,2.90
2023-03-17T00:05:53.899Z,3.40
2023-03-17T00:08:55.506Z,2.60
2023-03-17T00:11:56.375Z,3.80
2023-03-17T00:14:57.808Z,3.00
2023-03-17T00:17:58.994Z,3.30
2023-03-17T00:21:00.090Z,3.60
2023-03-17T00:24:01.558Z,3.10
2023-03-17T00:27:10.323Z,4.00
2023-03-17T00:30:11.693Z,2.50
2023-03-17T00:33:15.432Z,2.30
2023-03-17T00:36:19.089Z,4.00
2023-03-17T00:39:20.088Z,4.30
2023-03-17T00:42:21.010Z,4.20
2023-03-17T00:45:22.887Z,3.90
2023-03-17T00:48:24.596Z,2.60
2023-03-17T00:51:25.438Z,3.30
2023-03-17T00:54:26.314Z,3.80
2023-03-17T00:57:27.199Z,3.60
2023-03-17T01:00:29.380Z,3.70
2023-03-17T01:03:32.386Z,2.80
2023-03-17T01:06:33.226Z,3.40
2023-03-17T01:09:34.350Z,3.20
2023-03-17T01:12:35.301Z,2.60
2023-03-17T01:15:36.785Z,4.80
2023-03-17T01:18:39.036Z,2.80
2023-03-17T01:21:40.113Z,3.00
2023-03-17T01:24:41.373Z,3.20
2023-03-17T01:27:43.153Z,3.20
2023-03-17T01:30:45.447Z,3.80
2023-03-17T01:33:46.810Z,3.10
2023-03-17T01:36:47.900Z,3.50
2023-03-17T01:39:48.741Z,2.60
2023-03-17T01:42:59.657Z,5.00
2023-03-17T01:49:27.642Z,3.30
2023-03-17T01:52:28.797Z,2.70
2023-03-17T01:55:31.032Z,2.80
2023-03-17T01:58:32.845Z,3.90
2023-03-17T02:01:38.043Z,4.20
2023-03-17T02:04:39.688Z,3.60
2023-03-17T02:07:40.954Z,3.50
2023-03-17T02:10:42.758Z,2.90
2023-03-17T02:13:46.340Z,2.40
2023-03-17T02:16:48.726Z,3.90
2023-03-17T02:19:50.930Z,3.00
2023-03-17T02:22:53.017Z,2.80
2023-03-17T02:25:54.010Z,4.10
2023-03-17T02:28:55.034Z,2.20
2023-03-17T02:31:55.867Z,3.20
2023-03-17T02:34:57.451Z,3.10
2023-03-17T02:37:58.377Z,4.50
2023-03-17T02:40:59.317Z,2.50
2023-03-17T02:44:00.509Z,4.60
2023-03-17T02:47:02.607Z,2.00
2023-03-17T02:50:04.933Z,5.00
2023-03-17T02:53:06.914Z,1.80
2023-03-17T02:56:08.624Z,3.80
2023-03-17T02:59:09.543Z,3.40
2023-03-17T03:02:11.027Z,1.70
2023-03-17T03:05:12.063Z,3.40
2023-03-17T03:08:12.931Z,2.00
2023-03-17T03:11:13.832Z,2.70
2023-03-17T03:14:15.297Z,1.40
2023-03-17T03:17:16.520Z,1.40
2023-03-17T03:20:17.759Z,2.00
2023-03-17T03:23:18.845Z,1.30
2023-03-17T03:26:19.997Z,2.00
2023-03-17T03:29:20.931Z,1.80
2023-03-17T03:32:21.777Z,2.10
2023-03-17T03:35:22.641Z,1.70
2023-03-17T03:38:23.574Z,1.40
2023-03-17T03:41:24.460Z,2.60
2023-03-17T03:44:25.553Z,2.30
2023-03-17T03:47:26.356Z,2.30
2023-03-17T03:50:27.302Z,1.70
2023-03-17T03:53:28.710Z,1.30
2023-03-17T03:56:29.573Z,1.70
2023-03-17T03:59:30.419Z,2.10
2023-03-17T04:02:31.379Z,1.80
2023-03-17T04:05:32.352Z,1.50
2023-03-17T04:08:33.221Z,1.50
2023-03-17T04:11:34.205Z,1.70
2023-03-17T04:14:35.915Z,1.50
2023-03-17T04:17:37.441Z,1.60
2023-03-17T04:20:38.473Z,0.90
2023-03-17T04:23:39.336Z,1.60
2023-03-17T04:26:40.858Z,1.10
2023-03-17T04:29:42.336Z,1.10
2023-03-17T04:32:44.106Z,1.20
2023-03-17T04:35:45.172Z,1.30
2023-03-17T04:38:46.047Z,1.40
2023-03-17T04:41:46.937Z,1.40
2023-03-17T04:44:48.447Z,1.70
2023-03-17T04:47:49.285Z,1.20
2023-03-17T04:50:50.748Z,1.60
2023-03-17T04:53:51.942Z,1.30
2023-03-17T04:56:52.833Z,1.70
2023-03-17T04:59:53.799Z,1.40
2023-03-17T05:02:54.841Z,1.40
2023-03-17T05:05:56.809Z,1.60
2023-03-17T05:08:57.732Z,2.10
2023-03-17T05:11:58.640Z,2.90
2023-03-17T05:14:59.497Z,1.30
2023-03-17T05:18:00.341Z,1.10
2023-03-17T05:21:01.692Z,0.70
2023-03-17T05:24:02.746Z,1.10
2023-03-17T05:27:03.844Z,1.10
2023-03-17T05:30:05.188Z,0.90
2023-03-17T05:33:06.214Z,1.00
2023-03-17T05:36:07.452Z,0.90
2023-03-17T05:39:08.439Z,1.50
2023-03-17T05:42:09.330Z,0.80
2023-03-17T05:45:11.034Z,0.70
2023-03-17T05:48:12.528Z,1.00
2023-03-17T05:51:13.864Z,0.90
2023-03-17T05:54:14.979Z,1.80
2023-03-17T05:57:16.360Z,1.30
2023-03-17T06:00:18.186Z,2.60
2023-03-17T06:03:19.246Z,1.70
2023-03-17T06:06:20.165Z,4.70
2023-03-17T06:09:21.056Z,1.60
2023-03-17T06:12:21.963Z,1.30
2023-03-17T06:15:22.920Z,1.10
2023-03-17T06:18:23.851Z,1.40
2023-03-17T06:21:25.015Z,1.40
2023-03-17T06:24:25.895Z,1.30
2023-03-17T06:27:26.733Z,1.40
2023-03-17T06:30:27.721Z,1.50
2023-03-17T06:33:29.247Z,2.40
2023-03-17T06:36:31.566Z,0.80
2023-03-17T06:39:32.430Z,2.30
2023-03-17T06:42:33.384Z,1.40
2023-03-17T06:45:34.863Z,2.20
2023-03-17T06:48:35.922Z,2.60
2023-03-17T06:51:36.841Z,3.40
2023-03-17T06:54:37.847Z,2.10
2023-03-17T06:57:38.780Z,2.20
2023-03-17T07:00:39.768Z,2.00
2023-03-17T07:03:41.172Z,1.90
2023-03-17T07:06:42.390Z,3.30
2023-03-17T07:09:44.512Z,2.70
2023-03-17T07:12:45.406Z,3.20
2023-03-17T07:15:46.276Z,2.60
2023-03-17T07:18:47.793Z,4.00
2023-03-17T07:21:48.706Z,3.20
2023-03-17T07:24:49.692Z,6.50
2023-03-17T07:27:51.322Z,4.10
2023-03-17T07:30:52.538Z,3.60
2023-03-17T07:33:55.825Z,2.60
2023-03-17T07:36:57.784Z,2.20
2023-03-17T07:39:58.741Z,3.40
2023-03-17T07:42:59.890Z,2.70
2023-03-17T07:46:00.946Z,2.70
2023-03-17T07:49:01.903Z,3.90
2023-03-17T07:52:03.328Z,2.60
2023-03-17T07:55:07.753Z,3.20
2023-03-17T07:58:08.838Z,3.60
2023-03-17T08:01:09.795Z,3.90
2023-03-17T08:04:12.506Z,4.30
2023-03-17T08:07:14.196Z,4.90
2023-03-17T08:10:15.934Z,4.10
2023-03-17T08:13:17.442Z,3.70
2023-03-17T08:16:18.364Z,3.80
2023-03-17T08:19:19.374Z,3.70
2023-03-17T08:22:20.366Z,1.50
2023-03-17T08:25:21.530Z,1.90
2023-03-17T08:28:22.433Z,4.20
2023-03-17T08:31:23.460Z,2.40
2023-03-17T08:34:25.534Z,3.20
2023-03-17T08:37:27.127Z,2.20
2023-03-17T08:40:28.467Z,1.80
2023-03-17T08:43:29.549Z,2.20
2023-03-17T08:46:32.151Z,2.40
2023-03-17T08:49:35.392Z,2.60
2023-03-17T08:52:36.397Z,2.20
2023-03-17T08:55:37.247Z,2.60
2023-03-17T08:58:41.991Z,2.40
2023-03-17T09:01:44.821Z,6.90
2023-03-17T09:04:46.364Z,2.80
2023-03-17T09:07:48.794Z,3.00
2023-03-17T09:10:49.883Z,3.50
2023-03-17T09:13:51.341Z,3.80
2023-03-17T09:16:52.415Z,3.10
2023-03-17T09:19:53.286Z,2.90
2023-03-17T09:22:54.170Z,2.90
2023-03-17T09:25:55.226Z,2.10
2023-03-17T09:28:56.088Z,3.10
2023-03-17T09:31:57.113Z,3.80
2023-03-17T09:34:58.074Z,1.50
2023-03-17T09:37:58.923Z,4.20
2023-03-17T09:41:11.584Z,1.80
2023-03-17T09:44:32.125Z,3.50
2023-03-17T09:47:54.121Z,3.50
2023-03-17T09:51:02.340Z,5.30
2023-03-17T09:54:06.345Z,3.60
2023-03-17T09:57:13.025Z,3.60
2023-03-17T10:00:26.036Z,3.20
2023-03-17T10:03:26.983Z,4.50
2023-03-17T10:06:40.410Z,3.10
2023-03-17T10:09:52.945Z,4.40
2023-03-17T10:13:32.667Z,10.50
2023-03-17T10:16:38.737Z,4.70
2023-03-17T10:20:10.904Z,3.80
2023-03-17T10:23:14.734Z,2.70
2023-03-17T10:29:32.680Z,3.30
2023-03-17T10:32:37.250Z,3.30
2023-03-17T10:35:38.795Z,3.90
2023-03-17T10:38:39.760Z,3.60
2023-03-17T10:41:53.534Z,7.20
2023-03-17T10:45:01.267Z,3.70
2023-03-17T10:48:03.842Z,4.60
2023-03-17T10:51:07.740Z,3.50
2023-03-17T10:57:13.439Z,3.90
2023-03-17T11:03:26.488Z,3.30
2023-03-17T11:06:37.000Z,3.40
2023-03-17T11:09:37.891Z,4.80
2023-03-17T11:12:39.392Z,3.90
2023-03-17T11:15:49.075Z,4.60
2023-03-17T11:18:56.804Z,5.30
2023-03-17T11:22:06.562Z,4.20
2023-03-17T11:25:15.345Z,5.70
2023-03-17T11:28:19.551Z,4.80
2023-03-17T11:31:31.577Z,4.60
2023-03-17T11:34:51.549Z,4.20
2023-03-17T11:37:59.708Z,4.10
2023-03-17T11:41:04.254Z,4.50
2023-03-17T11:44:14.257Z,6.00
2023-03-17T11:50:33.794Z,5.00
2023-03-17T11:54:02.912Z,5.40
2023-03-17T11:57:08.572Z,4.90
2023-03-17T12:00:32.766Z,6.30
2023-03-17T12:03:38.125Z,5.60
2023-03-17T12:06:46.773Z,7.20
2023-03-17T12:10:01.374Z,4.80
2023-03-17T12:13:35.545Z,4.60
2023-03-17T12:16:46.901Z,8.00
2023-03-17T12:20:11.918Z,4.40
2023-03-17T12:23:18.241Z,6.10
2023-03-17T12:26:38.468Z,6.20
2023-03-17T12:29:49.387Z,5.90
2023-03-17T12:33:26.998Z,5.90
2023-03-17T12:36:27.981Z,6.00
2023-03-17T12:39:32.616Z,4.60
2023-03-17T12:42:38.005Z,5.90
2023-03-17T12:45:56.323Z,4.80
2023-03-17T12:49:33.784Z,6.60
2023-03-17T12:52:57.128Z,5.70
2023-03-17T12:56:09.813Z,5.00
2023-03-17T12:59:20.608Z,4.70
2023-03-17T13:02:31.906Z,7.80
2023-03-17T13:05:36.605Z,6.60
2023-03-17T13:08:40.384Z,5.20
2023-03-17T13:11:47.530Z,5.60
2023-03-17T13:14:51.121Z,10.10
2023-03-17T13:18:09.951Z,6.50
2023-03-17T13:21:14.053Z,6.20
2023-03-17T13:24:14.896Z,8.30
2023-03-17T13:27:43.119Z,7.00
2023-03-17T13:31:11.738Z,5.00
2023-03-17T13:37:23.588Z,6.30
2023-03-17T13:40:31.047Z,5.20
2023-03-17T13:43:39.297Z,5.30
2023-03-17T13:46:45.983Z,6.50
2023-03-17T13:49:50.249Z,6.70
2023-03-17T13:52:57.145Z,8.00
2023-03-17T13:56:08.738Z,7.40
2023-03-17T13:59:20.704Z,6.40
2023-03-17T14:02:24.265Z,7.50
2023-03-17T14:05:28.247Z,6.70
2023-03-17T14:08:38.132Z,6.30
2023-03-17T14:11:39.910Z,7.40
2023-03-17T14:14:49.397Z,7.10
2023-03-17T14:17:55.457Z,5.90
2023-03-17T14:20:58.435Z,7.00
2023-03-17T14:24:17.938Z,5.40
2023-03-17T14:27:18.989Z,7.90
2023-03-17T14:30:28.345Z,6.80
2023-03-17T14:33:32.910Z,6.80
2023-03-17T14:36:33.877Z,6.80
2023-03-17T14:39:34.802Z,7.30
2023-03-17T14:42:35.775Z,7.00
2023-03-17T14:45:54.776Z,6.60
2023-03-17T14:49:18.806Z,5.50
2023-03-17T14:52:23.400Z,7.00
2023-03-17T14:55:43.066Z,6.40
2023-03-17T14:58:47.155Z,7.40
2023-03-17T15:01:53.449Z,6.00
2023-03-17T15:05:06.046Z,5.80
2023-03-17T15:08:29.961Z,7.50
2023-03-17T15:11:42.762Z,6.00
2023-03-17T15:14:46.839Z,6.30
2023-03-17T15:17:50.787Z,6.60
2023-03-17T15:20:54.677Z,7.20
2023-03-17T15:23:55.626Z,7.50
2023-03-17T15:27:05.837Z,6.50
2023-03-17T15:30:07.324Z,6.50
2023-03-17T15:33:34.698Z,7.30
2023-03-17T15:36:36.001Z,6.50
2023-03-17T15:39:37.297Z,8.00
2023-03-17T15:42:39.136Z,6.50
2023-03-17T15:45:41.312Z,6.90
2023-03-17T15:48:42.254Z,6.70
2023-03-17T15:51:43.198Z,6.80
2023-03-17T15:54:44.352Z,6.80
2023-03-17T15:57:53.819Z,6.50
2023-03-17T16:00:56.734Z,6.80
2023-03-17T16:03:57.659Z,6.90
2023-03-17T16:06:58.941Z,7.30
2023-03-17T16:10:00.163Z,7.60
2023-03-17T16:13:01.034Z,8.30
2023-03-17T16:16:04.943Z,9.00
2023-03-17T16:19:09.577Z,8.10
2023-03-17T16:22:38.326Z,8.30
2023-03-17T16:25:39.715Z,7.60
2023-03-17T16:28:40.733Z,7.90
2023-03-17T16:31:43.589Z,10.10
2023-03-17T16:34:44.655Z,9.90
2023-03-17T16:37:45.857Z,8.90
2023-03-17T16:40:49.874Z,9.60
2023-03-17T16:43:58.741Z,11.60
2023-03-17T16:46:59.875Z,9.90
2023-03-17T16:50:00.892Z,8.20
2023-03-17T16:53:01.815Z,8.30
2023-03-17T16:56:02.949Z,9.00
2023-03-17T16:59:03.942Z,8.40
2023-03-17T17:02:14.527Z,8.30
2023-03-17T17:05:22.267Z,8.30
2023-03-17T17:08:23.487Z,8.40
2023-03-17T17:11:24.327Z,8.80
2023-03-17T17:14:25.241Z,8.30
2023-03-17T17:17:27.577Z,7.80
2023-03-17T17:20:34.121Z,9.00
2023-03-17T17:23:35.097Z,9.50
2023-03-17T17:26:36.055Z,9.70
2023-03-17T17:29:36.933Z,8.30
2023-03-17T17:32:38.072Z,9.20
2023-03-17T17:35:40.430Z,10.00
2023-03-17T17:38:41.667Z,9.70
2023-03-17T17:41:42.634Z,7.70
2023-03-17T17:44:43.551Z,7.80
2023-03-17T17:47:44.510Z,7.80
2023-03-17T17:50:45.544Z,8.40
2023-03-17T17:53:46.388Z,7.30
2023-03-17T17:56:47.517Z,8.30
2023-03-17T17:59:48.389Z,7.70
2023-03-17T18:02:49.409Z,7.30
2023-03-17T18:05:55.421Z,8.00
2023-03-17T18:08:58.302Z,8.10
2023-03-17T18:11:59.230Z,7.40
2023-03-17T18:15:00.170Z,8.00
2023-03-17T18:18:01.525Z,8.10
2023-03-17T18:21:02.447Z,8.00
2023-03-17T18:24:04.133Z,8.00
2023-03-17T18:27:05.284Z,6.40
2023-03-17T18:30:08.598Z,7.10
2023-03-17T18:33:13.411Z,9.50
2023-03-17T18:36:14.410Z,8.80
2023-03-17T18:39:15.391Z,9.10
2023-03-17T18:42:16.335Z,9.50
2023-03-17T18:45:18.644Z,8.90
2023-03-17T18:48:19.803Z,8.50
2023-03-17T18:51:20.687Z,7.10
2023-03-17T18:54:22.770Z,7.30
2023-03-17T18:57:23.859Z,8.80
2023-03-17T19:00:26.241Z,9.00
2023-03-17T19:03:28.322Z,8.50
2023-03-17T19:06:29.380Z,8.60
2023-03-17T19:09:31.067Z,10.10
2023-03-17T19:12:32.169Z,8.60
2023-03-17T19:15:33.523Z,9.20
2023-03-17T19:18:35.197Z,10.00
2023-03-17T19:21:36.073Z,9.60
2023-03-17T19:24:37.309Z,10.60
2023-03-17T19:27:38.961Z,8.10
2023-03-17T19:30:41.278Z,8.80
2023-03-17T19:33:42.187Z,8.60
2023-03-17T19:36:45.842Z,10.50
2023-03-17T19:39:46.712Z,8.90
2023-03-17T19:42:48.408Z,9.50
2023-03-17T19:45:49.383Z,10.30
2023-03-17T19:48:50.907Z,10.90
2023-03-17T19:51:52.436Z,9.50
2023-03-17T19:54:53.783Z,9.60
2023-03-17T19:57:54.965Z,8.60
2023-03-17T20:00:55.818Z,11.00
2023-03-17T20:03:59.897Z,8.20
2023-03-17T20:07:01.216Z,8.50
2023-03-17T20:10:03.867Z,11.10
2023-03-17T20:13:05.024Z,7.90
2023-03-17T20:16:06.709Z,11.60
2023-03-17T20:19:07.924Z,10.10
2023-03-17T20:22:08.925Z,9.10
2023-03-17T20:25:10.540Z,12.00
2023-03-17T20:28:12.209Z,9.80
2023-03-17T20:31:13.354Z,9.50
2023-03-17T20:34:15.603Z,8.70
2023-03-17T20:37:17.079Z,9.10
2023-03-17T20:40:18.092Z,9.10
2023-03-17T20:43:19.031Z,8.50
2023-03-17T20:46:24.743Z,11.10
2023-03-17T20:49:25.886Z,12.10
2023-03-17T20:52:29.498Z,11.20
2023-03-17T20:55:30.949Z,12.50
2023-03-17T20:58:32.620Z,12.60
2023-03-17T21:01:36.169Z,10.30
2023-03-17T21:04:37.256Z,9.70
2023-03-17T21:07:38.125Z,9.30
2023-03-17T21:10:39.198Z,11.40
2023-03-17T21:13:40.175Z,10.40
2023-03-17T21:16:46.474Z,8.90
2023-03-17T21:19:47.380Z,11.60
2023-03-17T21:22:49.191Z,10.00
2023-03-17T21:25:55.273Z,9.50
2023-03-17T21:28:56.938Z,10.90
2023-03-17T21:31:59.896Z,9.40
2023-03-17T21:35:01.097Z,9.90
2023-03-17T21:38:02.025Z,11.60
2023-03-17T21:41:20.808Z,8.70
2023-03-17T21:44:21.846Z,8.50
2023-03-17T21:47:22.735Z,8.80
2023-03-17T21:50:23.677Z,12.60
2023-03-17T21:53:25.184Z,11.50
2023-03-17T21:56:26.677Z,11.70
2023-03-17T21:59:32.570Z,11.40
2023-03-17T22:02:34.777Z,12.20
2023-03-17T22:05:36.525Z,11.10
2023-03-17T22:08:37.392Z,11.40
2023-03-17T22:11:38.370Z,11.70
2023-03-17T22:14:39.326Z,9.40
2023-03-17T22:17:40.355Z,11.50
2023-03-17T22:20:41.400Z,11.60
2023-03-17T22:23:42.495Z,11.10
2023-03-17T22:26:43.614Z,10.60
2023-03-17T22:29:44.655Z,9.00
2023-03-17T22:32:46.261Z,11.20
2023-03-17T22:35:47.203Z,11.00
2023-03-17T22:38:48.330Z,10.80
2023-03-17T22:41:49.259Z,8.50
2023-03-17T22:44:50.232Z,9.90
2023-03-17T22:47:53.621Z,10.70
2023-03-17T22:50:54.604Z,11.20
2023-03-17T22:53:56.062Z,13.10
2023-03-17T22:56:56.912Z,11.80
2023-03-17T22:59:58.551Z,10.70
2023-03-17T23:02:59.548Z,9.00
2023-03-17T23:06:02.040Z,11.30
2023-03-17T23:09:04.191Z,10.90
2023-03-17T23:12:05.713Z,10.60
2023-03-17T23:15:07.083Z,11.80
2023-03-17T23:18:08.677Z,10.70
2023-03-17T23:21:10.122Z,11.70
2023-03-17T23:24:11.139Z,10.30
2023-03-17T23:27:12.229Z,10.50
2023-03-17T23:30:14.474Z,13.30
2023-03-17T23:33:16.717Z,10.50
2023-03-17T23:36:17.736Z,13.40
2023-03-17T23:39:18.777Z,11.90
2023-03-17T23:42:20.502Z,11.60
2023-03-17T23:45:22.515Z,10.00
2023-03-17T23:48:23.589Z,11.90
2023-03-17T23:51:24.516Z,12.90
2023-03-17T23:54:25.365Z,10.00
2023-03-17T23:57:26.250Z,14.20
